Time;durP1;ratioP1;P1;durP2;ratioP2;P2;SDS_P1;SDS_P2;PMS_P1;PMS_P2;Temp;Humidity;BMP_temperature;BMP_pressure;BME280_temperature;BME280_humidity;BME280_pressure;Samples;Min_cycle;Max_cycle;Signal;HPM_P1;HPM_P2
2021/03/22 00:02:22;;;;;;;13.33;8.27;;;;;;;1.21;61.48;98704.97;1768423;80;21590;-60
2021/03/22 00:04:49;;;;;;;11.40;7.03;;;;;;;1.22;61.46;98700.95;1771353;80;21183;-61
2021/03/22 00:07:16;;;;;;;11.90;8.17;;;;;;;1.23;61.45;98689.44;1769663;79;22885;-59
2021/03/22 00:09:46;;;;;;;12.60;8.30;;;;;;;1.23;61.44;98688.57;1767517;79;21805;-60
2021/03/22 00:12:15;;;;;;;14.20;7.13;;;;;;;1.23;61.37;98682.81;1755942;80;21221;-60
2021/03/22 00:14:43;;;;;;;12.20;7.80;;;;;;;1.23;61.31;98681.94;1766548;80;21186;-60
2021/03/22 00:17:12;;;;;;;11.70;8.10;;;;;;;1.23;61.26;98676.64;1719778;82;21495;-61
2021/03/22 00:19:39;;;;;;;12.87;9.07;;;;;;;1.21;61.24;98674.03;1725312;81;21718;-60
2021/03/22 00:22:07;;;;;;;15.27;9.33;;;;;;;1.22;61.22;98670.92;1752827;80;21578;-60
2021/03/22 00:24:36;;;;;;;11.00;7.50;;;;;;;1.22;61.15;98665.16;1722000;81;21228;-61
2021/03/22 00:27:04;;;;;;;14.80;8.60;;;;;;;1.20;61.11;98668.77;1751535;80;21173;-59
2021/03/22 00:29:33;;;;;;;10.27;6.97;;;;;;;1.18;61.10;98667.95;1752279;81;21008;-60
2021/03/22 00:32:00;;;;;;;11.13;8.17;;;;;;;1.15;61.10;98664.92;1772779;79;21363;-60
2021/03/22 00:34:28;;;;;;;12.40;7.50;;;;;;;1.13;61.11;98655.69;1773245;80;21285;-61
2021/03/22 00:36:56;;;;;;;12.83;7.73;;;;;;;1.13;61.13;98665.42;1772522;80;21127;-60
2021/03/22 00:39:23;;;;;;;14.10;8.03;;;;;;;1.11;61.17;98663.26;1771551;80;21691;-60
2021/03/22 00:41:50;;;;;;;11.33;7.73;;;;;;;1.10;61.20;98658.90;1768532;79;21199;-61
2021/03/22 00:44:17;;;;;;;13.70;9.50;;;;;;;1.06;61.24;98650.16;1768517;80;21449;-61
2021/03/22 00:46:44;;;;;;;16.83;8.60;;;;;;;1.03;61.28;98656.84;1754789;80;21664;-61
2021/03/22 00:49:12;;;;;;;12.40;8.53;;;;;;;1.01;61.33;98653.84;1722730;81;21238;-61
2021/03/22 00:51:39;;;;;;;13.77;8.20;;;;;;;0.99;61.37;98655.66;1773753;80;21661;-61
2021/03/22 00:54:06;;;;;;;12.40;8.10;;;;;;;0.95;61.42;98653.99;1726294;81;21175;-59
2021/03/22 00:56:34;;;;;;;15.77;8.33;;;;;;;0.93;61.49;98651.41;1769298;79;21374;-62
2021/03/22 00:59:01;;;;;;;13.10;8.40;;;;;;;0.90;61.55;98648.83;1720424;81;21192;-62
2021/03/22 01:01:28;;;;;;;13.17;8.10;;;;;;;0.87;61.64;98654.66;1724693;81;21217;-62
2021/03/22 01:03:56;;;;;;;12.90;7.57;;;;;;;0.83;61.72;98654.34;1769752;80;21225;-62
2021/03/22 01:06:23;;;;;;;12.73;7.77;;;;;;;0.82;61.80;98653.92;1771274;80;21142;-61
2021/03/22 01:08:50;;;;;;;11.90;7.93;;;;;;;0.79;61.83;98651.34;1724053;81;21404;-60
2021/03/22 01:11:19;;;;;;;17.70;8.43;;;;;;;0.78;61.91;98654.45;1766937;80;22297;-62
2021/03/22 01:13:53;;;;;;;15.10;8.43;;;;;;;0.76;61.99;98649.67;1754131;80;21201;-60
2021/03/22 01:16:23;;;;;;;12.47;7.90;;;;;;;0.77;62.01;98650.54;1773028;79;21115;-61
2021/03/22 01:18:53;;;;;;;15.87;9.20;;;;;;;0.79;62.08;98652.67;1749969;80;21422;-62
2021/03/22 01:21:31;;;;;;;14.80;8.77;;;;;;;0.79;62.12;98653.54;1771229;79;21198;-62
2021/03/22 01:24:00;;;;;;;13.93;7.97;;;;;;;0.80;62.10;98655.73;1727160;81;21160;-61
2021/03/22 01:26:31;;;;;;;14.90;8.70;;;;;;;0.80;62.09;98652.63;1765968;79;21566;-60
2021/03/22 01:28:58;;;;;;;12.60;9.03;;;;;;;0.82;62.13;98653.92;1732341;81;21111;-61
2021/03/22 01:31:26;;;;;;;12.07;8.47;;;;;;;0.81;62.14;98656.16;1751321;81;21193;-62
2021/03/22 01:33:54;;;;;;;14.93;9.67;;;;;;;0.80;62.16;98646.46;1736713;80;21499;-62
2021/03/22 01:36:24;;;;;;;15.20;9.50;;;;;;;0.80;62.16;98647.34;1722798;82;21681;-62
2021/03/22 01:38:53;;;;;;;14.50;9.30;;;;;;;0.80;62.18;98648.66;1721581;82;21340;-62
2021/03/22 01:41:50;;;;;;;15.83;8.67;;;;;;;0.82;62.21;98645.98;1720635;81;21269;-62
2021/03/22 01:44:36;;;;;;;14.13;8.37;;;;;;;0.83;62.27;98649.91;1719063;81;21202;-62
2021/03/22 01:47:11;;;;;;;18.50;10.00;;;;;;;0.83;62.25;98647.27;1761069;80;21202;-60
2021/03/22 01:49:52;;;;;;;10.60;7.63;;;;;;;0.83;62.21;98645.94;1763906;80;21614;-62
2021/03/22 01:52:19;;;;;;;15.40;9.17;;;;;;;0.83;62.26;98643.75;1769823;79;21207;-61
2021/03/22 01:54:49;;;;;;;17.07;9.53;;;;;;;0.81;62.35;98645.11;1770828;80;21087;-61
2021/03/22 01:57:35;;;;;;;14.30;8.77;;;;;;;0.83;62.33;98639.32;1767538;80;21209;-62
2021/03/22 02:00:32;;;;;;;16.40;9.60;;;;;;;0.84;62.33;98637.09;1774206;79;22200;-61
2021/03/22 02:03:12;;;;;;;13.47;8.27;;;;;;;0.86;62.36;98637.02;1774272;80;20973;-61
2021/03/22 02:05:42;;;;;;;11.63;8.23;;;;;;;0.87;62.33;98641.41;1745398;80;21462;-61
2021/03/22 02:08:23;;;;;;;14.90;9.20;;;;;;;0.87;62.36;98642.73;1773020;80;21562;-59
2021/03/22 02:10:51;;;;;;;13.87;9.13;;;;;;;0.88;62.39;98637.86;1773310;79;21091;-61
2021/03/22 02:13:22;;;;;;;11.80;8.40;;;;;;;0.86;62.42;98639.22;1772831;79;21202;-61
2021/03/22 02:16:05;;;;;;;12.03;8.30;;;;;;;0.84;62.49;98632.24;1747857;80;21151;-60
2021/03/22 02:19:05;;;;;;;19.47;9.70;;;;;;;0.85;62.57;98637.95;1770236;79;21135;-60
2021/03/22 02:22:02;;;;;;;13.93;8.37;;;;;;;0.83;62.61;98632.70;1770295;80;21222;-61
2021/03/22 02:24:53;;;;;;;13.87;9.23;;;;;;;0.83;62.67;98625.20;1772826;79;21103;-62
2021/03/22 02:27:52;;;;;;;16.73;8.80;;;;;;;0.83;62.73;98632.70;1768662;80;21369;-61
2021/03/22 02:30:58;;;;;;;15.30;8.30;;;;;;;0.85;62.74;98630.01;1771524;79;21119;-60
2021/03/22 02:34:00;;;;;;;17.30;9.53;;;;;;;0.83;62.77;98626.07;1774998;80;21119;-61
2021/03/22 02:36:51;;;;;;;16.10;10.00;;;;;;;0.85;62.83;98632.66;1747581;80;21091;-62
2021/03/22 02:39:19;;;;;;;12.83;8.93;;;;;;;0.86;62.79;98626.42;1771678;80;21077;-62
2021/03/22 02:41:56;;;;;;;12.60;8.87;;;;;;;0.86;62.83;98619.80;1772029;79;21191;-61
2021/03/22 02:44:28;;;;;;;16.13;10.10;;;;;;;0.87;62.87;98622.87;1772013;80;21127;-61
2021/03/22 02:46:59;;;;;;;16.87;9.23;;;;;;;0.88;62.88;98621.95;1771433;80;21130;-60
2021/03/22 02:49:28;;;;;;;13.93;9.37;;;;;;;0.89;62.86;98615.75;1764654;80;21178;-61
2021/03/22 02:52:16;;;;;;;15.40;9.33;;;;;;;0.90;62.86;98618.37;1762923;79;21206;-61
2021/03/22 02:54:57;;;;;;;14.93;10.57;;;;;;;0.93;62.82;98609.47;1770343;79;21233;-61
2021/03/22 02:57:42;;;;;;;13.60;8.77;;;;;;;0.93;62.81;98616.09;1771160;80;21158;-61
2021/03/22 03:00:18;;;;;;;14.77;8.93;;;;;;;0.91;62.83;98608.64;1769414;79;21171;-63
2021/03/22 03:02:49;;;;;;;15.47;8.93;;;;;;;0.91;62.85;98605.98;1770936;80;21155;-62
2021/03/22 03:05:22;;;;;;;19.17;10.20;;;;;;;0.91;62.84;98609.51;1765563;79;21191;-63
2021/03/22 03:07:49;;;;;;;15.83;9.57;;;;;;;0.91;62.90;98609.51;1772783;79;22706;-63
2021/03/22 03:10:18;;;;;;;12.60;8.57;;;;;;;0.92;62.92;98606.41;1768320;80;21154;-63
2021/03/22 03:12:45;;;;;;;16.80;9.90;;;;;;;0.94;62.91;98607.20;1765220;79;21163;-63
2021/03/22 03:15:17;;;;;;;15.00;9.37;;;;;;;0.94;62.89;98607.20;1763916;80;21171;-62
2021/03/22 03:17:46;;;;;;;18.37;8.87;;;;;;;0.94;62.90;98609.41;1771119;79;21234;-63
2021/03/22 03:20:19;;;;;;;12.70;9.27;;;;;;;0.95;62.95;98606.30;1771789;80;22013;-63
2021/03/22 03:22:47;;;;;;;12.87;8.17;;;;;;;0.95;62.95;98598.35;1765407;80;21601;-63
2021/03/22 03:25:15;;;;;;;14.67;9.00;;;;;;;0.97;62.96;98600.52;1768359;80;21193;-63
2021/03/22 03:27:42;;;;;;;16.17;10.37;;;;;;;0.97;62.93;98602.70;1770444;79;21187;-63
2021/03/22 03:30:14;;;;;;;16.13;9.77;;;;;;;0.99;62.94;98600.02;1769503;80;21075;-62
2021/03/22 03:32:41;;;;;;;18.30;10.20;;;;;;;1.00;62.89;98599.11;1766551;80;21326;-63
2021/03/22 03:35:11;;;;;;;20.90;10.33;;;;;;;0.98;62.89;98595.62;1766110;80;21190;-62
2021/03/22 03:37:39;;;;;;;14.53;9.13;;;;;;;0.97;62.84;98589.45;1763475;80;21194;-62
2021/03/22 03:40:11;;;;;;;15.97;10.70;;;;;;;0.96;62.89;98586.84;1770120;80;22312;-63
2021/03/22 03:42:39;;;;;;;14.40;9.70;;;;;;;0.96;62.89;98585.52;1767412;80;21158;-62
2021/03/22 03:45:10;;;;;;;15.77;9.50;;;;;;;0.94;62.95;98586.02;1769283;80;22453;-63
2021/03/22 03:47:42;;;;;;;14.50;9.77;;;;;;;0.92;62.95;98587.41;1771413;79;22629;-62
2021/03/22 03:50:14;;;;;;;17.90;10.20;;;;;;;0.91;63.02;98586.12;1769538;80;21207;-63
2021/03/22 03:52:42;;;;;;;13.90;8.43;;;;;;;0.91;63.07;98590.09;1772046;79;21199;-62
2021/03/22 03:55:10;;;;;;;15.43;10.00;;;;;;;0.91;63.13;98591.42;1769807;80;21261;-63
2021/03/22 03:57:37;;;;;;;15.87;9.77;;;;;;;0.91;63.14;98582.14;1762727;80;23073;-63
2021/03/22 04:00:10;;;;;;;14.80;9.20;;;;;;;0.92;63.16;98587.86;1769410;79;21218;-62
2021/03/22 04:02:43;;;;;;;18.30;9.90;;;;;;;0.92;63.20;98582.11;1768944;79;21195;-63
2021/03/22 04:05:13;;;;;;;17.03;9.97;;;;;;;0.93;63.22;98576.36;1768518;80;21701;-63
2021/03/22 04:07:40;;;;;;;15.93;9.43;;;;;;;0.94;63.19;98573.64;1771058;79;21083;-63
2021/03/22 04:10:11;;;;;;;16.10;10.53;;;;;;;0.93;63.21;98567.08;1770670;80;21193;-64
2021/03/22 04:12:38;;;;;;;15.27;9.30;;;;;;;0.94;63.24;98567.47;1769522;80;21190;-63
2021/03/22 04:15:09;;;;;;;14.60;10.30;;;;;;;0.93;63.21;98563.11;1766586;80;21211;-63
2021/03/22 04:17:37;;;;;;;18.87;10.77;;;;;;;0.93;63.21;98560.45;1770574;80;21191;-63
2021/03/22 04:20:05;;;;;;;16.43;10.43;;;;;;;0.94;63.25;98560.84;1770130;80;22544;-63
2021/03/22 04:22:33;;;;;;;18.33;10.70;;;;;;;0.94;63.30;98563.03;1773198;79;21538;-63
2021/03/22 04:25:00;;;;;;;21.90;10.67;;;;;;;0.95;63.31;98559.48;1768680;80;21186;-63
2021/03/22 04:27:28;;;;;;;15.77;10.30;;;;;;;0.94;63.38;98560.39;1770648;80;21194;-63
2021/03/22 04:29:55;;;;;;;15.10;9.50;;;;;;;0.95;63.37;98565.23;1769654;79;21644;-63
2021/03/22 04:32:22;;;;;;;17.80;11.07;;;;;;;0.95;63.49;98562.13;1769589;79;21289;-63
2021/03/22 04:34:50;;;;;;;17.10;10.00;;;;;;;0.96;63.48;98564.33;1768439;79;21589;-63
2021/03/22 04:37:17;;;;;;;16.33;9.77;;;;;;;0.97;63.48;98565.61;1768935;80;21171;-63
2021/03/22 04:39:45;;;;;;;17.33;10.37;;;;;;;0.98;63.50;98570.45;1765193;79;21208;-63
2021/03/22 04:42:12;;;;;;;17.67;10.83;;;;;;;0.99;63.54;98573.06;1770760;79;21191;-63
2021/03/22 04:44:41;;;;;;;15.27;9.47;;;;;;;1.01;63.58;98565.95;1770103;80;21235;-63
2021/03/22 04:47:09;;;;;;;18.90;11.00;;;;;;;1.04;63.51;98569.81;1766944;79;22544;-63
2021/03/22 04:49:36;;;;;;;14.77;9.83;;;;;;;1.05;63.45;98574.66;1763331;79;21127;-63
2021/03/22 04:52:04;;;;;;;18.13;11.27;;;;;;;1.05;63.42;98570.23;1771663;80;21139;-63
2021/03/22 04:54:31;;;;;;;17.13;9.67;;;;;;;1.09;63.51;98575.00;1770178;79;21616;-64
2021/03/22 04:57:15;;;;;;;20.27;11.57;;;;;;;1.10;63.51;98571.44;1770290;80;21190;-63
2021/03/22 04:59:42;;;;;;;20.57;11.73;;;;;;;1.12;63.54;98573.56;1771316;79;21377;-64
2021/03/22 05:02:09;;;;;;;18.80;11.10;;;;;;;1.14;63.50;98567.77;1769595;80;21111;-64
2021/03/22 05:04:39;;;;;;;23.60;13.10;;;;;;;1.18;63.51;98565.91;1767158;80;21421;-63
2021/03/22 05:07:06;;;;;;;20.30;11.73;;;;;;;1.22;63.47;98566.22;1773690;80;21111;-63
2021/03/22 05:09:34;;;;;;;21.80;12.93;;;;;;;1.22;63.41;98564.44;1768133;79;21135;-64
2021/03/22 05:12:04;;;;;;;17.17;10.90;;;;;;;1.25;63.40;98564.36;1771181;80;21184;-64
2021/03/22 05:14:31;;;;;;;22.60;11.83;;;;;;;1.27;63.41;98558.56;1773362;79;21621;-62
2021/03/22 05:16:58;;;;;;;23.03;12.37;;;;;;;1.31;63.30;98564.62;1768430;80;21102;-62
2021/03/22 05:21:58;;;;;;;21.70;13.53;;;;;;;1.36;63.25;98573.33;1864596;74;26938;-61
2021/03/22 05:24:25;;;;;;;27.93;14.23;;;;;;;1.35;63.24;98580.41;1831692;75;21170;-61
2021/03/22 05:26:55;;;;;;;19.33;13.33;;;;;;;1.39;63.18;98578.52;1835741;75;21198;-61
2021/03/22 05:29:23;;;;;;;20.87;12.30;;;;;;;1.43;63.16;98581.05;1831446;75;20972;-62
2021/03/22 05:31:52;;;;;;;22.53;12.93;;;;;;;1.47;63.13;98583.13;1833938;75;21407;-60
2021/03/22 05:34:20;;;;;;;22.03;12.43;;;;;;;1.50;63.10;98581.72;1836575;75;21080;-60
2021/03/22 05:36:48;;;;;;;22.93;11.73;;;;;;;1.55;63.02;98586.41;1833255;75;20964;-60
2021/03/22 05:39:16;;;;;;;23.47;11.73;;;;;;;1.59;62.91;98585.42;1838811;75;21577;-60
2021/03/22 05:41:49;;;;;;;22.13;11.77;;;;;;;1.64;62.80;98582.61;1770691;78;21431;-60
2021/03/22 05:44:25;;;;;;;21.27;11.30;;;;;;;1.66;62.77;98584.77;1767636;79;21117;-63
2021/03/22 05:47:16;;;;;;;18.97;11.70;;;;;;;1.68;62.72;98589.58;1748208;79;21585;-60
2021/03/22 05:50:10;;;;;;;18.87;11.60;;;;;;;1.69;62.68;98586.01;1771436;80;21103;-62
2021/03/22 05:53:01;;;;;;;20.57;10.63;;;;;;;1.70;62.69;98589.91;1756936;80;21740;-62
2021/03/22 05:55:39;;;;;;;16.17;10.67;;;;;;;1.76;62.57;98583.57;1756777;80;21202;-61
2021/03/22 05:58:44;;;;;;;19.87;10.17;;;;;;;1.80;62.56;98581.21;1765662;79;21175;-61
2021/03/22 06:01:23;;;;;;;16.40;10.63;;;;;;;1.85;62.47;98580.63;1757675;80;21255;-60
2021/03/22 06:03:54;;;;;;;16.03;9.97;;;;;;;1.88;62.20;98585.36;1759949;80;21223;-60
2021/03/22 06:06:43;;;;;;;16.90;10.53;;;;;;;1.94;62.13;98572.83;1757802;80;21926;-59
2021/03/22 06:09:39;;;;;;;17.13;10.50;;;;;;;1.99;62.07;98583.70;1774035;80;21219;-59
2021/03/22 06:12:30;;;;;;;17.97;10.67;;;;;;;2.06;61.92;98579.05;1789423;78;21547;-60
2021/03/22 06:15:17;;;;;;;15.97;10.50;;;;;;;2.16;61.72;98573.84;1770337;80;21630;-59
2021/03/22 06:18:12;;;;;;;14.00;9.40;;;;;;;2.25;61.41;98580.19;1771242;80;21187;-61
2021/03/22 06:20:40;;;;;;;18.40;10.97;;;;;;;2.31;61.21;98579.97;1755391;80;21375;-60
2021/03/22 06:23:36;;;;;;;15.43;9.87;;;;;;;2.38;60.94;98581.98;1768801;79;21178;-61
2021/03/22 06:26:31;;;;;;;17.33;9.93;;;;;;;2.41;60.93;98575.22;1770783;79;21185;-61
2021/03/22 06:29:04;;;;;;;19.20;9.58;;;;;;;2.49;60.54;98578.02;1750406;79;21729;-62
2021/03/22 06:31:31;;;;;;;17.60;11.10;;;;;;;2.57;60.07;98581.28;1771652;79;21192;-63
2021/03/22 06:34:06;;;;;;;15.77;10.10;;;;;;;2.63;59.93;98577.10;1740903;81;23008;-61
2021/03/22 06:36:34;;;;;;;25.33;9.83;;;;;;;2.70;59.86;98576.42;1775023;79;21191;-63
2021/03/22 06:39:06;;;;;;;11.60;8.60;;;;;;;2.80;59.65;98574.31;1759960;80;21588;-62
2021/03/22 06:41:52;;;;;;;11.53;7.20;;;;;;;2.86;59.35;98575.41;1774325;79;21126;-63
2021/03/22 06:44:37;;;;;;;12.63;8.27;;;;;;;2.87;59.24;98576.69;1760970;79;21099;-63
2021/03/22 06:47:15;;;;;;;13.35;7.58;;;;;;;2.87;59.37;98573.16;1777046;79;27077;-62
2021/03/22 06:49:53;;;;;;;8.80;6.10;;;;;;;2.91;59.58;98581.41;1755618;81;21622;-62
2021/03/22 06:52:24;;;;;;;8.47;5.93;;;;;;;2.96;59.62;98580.80;1774575;79;21154;-61
2021/03/22 06:54:54;;;;;;;9.17;6.00;;;;;;;3.00;59.84;98581.08;1767216;80;22291;-61
2021/03/22 06:57:25;;;;;;;12.27;6.20;;;;;;;3.08;59.76;98587.45;1821711;77;21218;-61
2021/03/22 07:00:27;;;;;;;9.30;5.80;;;;;;;3.10;60.02;98583.81;1758415;81;21906;-61
2021/03/22 07:03:01;;;;;;;9.03;6.57;;;;;;;3.15;60.02;98585.83;1704146;82;21225;-61
2021/03/22 07:05:35;;;;;;;10.48;5.28;;;;;;;3.17;60.10;98597.28;1705610;82;21146;-61
2021/03/22 07:08:19;;;;;;;11.70;6.13;;;;;;;3.19;60.38;98594.12;1678583;84;21294;-62
2021/03/22 07:11:04;;;;;;;7.57;6.10;;;;;;;3.21;60.57;98602.05;1703246;82;22056;-61
2021/03/22 07:13:31;;;;;;;10.43;6.05;;;;;;;3.22;60.94;98590.48;1705975;82;23265;-62
2021/03/22 07:16:20;;;;;;;11.27;7.00;;;;;;;3.19;61.27;98598.11;1703183;82;21208;-61
2021/03/22 07:19:09;;;;;;;9.73;6.30;;;;;;;3.20;61.60;98597.19;1706681;82;21194;-61
2021/03/22 07:21:54;;;;;;;8.53;6.57;;;;;;;3.24;61.88;98591.27;1675170;84;21238;-61
2021/03/22 07:24:38;;;;;;;10.90;7.33;;;;;;;3.28;62.49;98594.23;1674835;84;21215;-61
2021/03/22 07:27:29;;;;;;;9.20;6.47;;;;;;;3.30;62.80;98599.05;1692606;84;21838;-63
2021/03/22 07:30:29;;;;;;;12.10;6.73;;;;;;;3.27;63.38;98592.50;1703856;82;21221;-63
2021/03/22 07:33:17;;;;;;;7.20;6.03;;;;;;;3.29;63.60;98584.88;1677761;84;21234;-60
2021/03/22 07:36:30;;;;;;;10.03;6.93;;;;;;;3.31;63.79;98591.48;1706025;82;21552;-58
2021/03/22 07:39:29;;;;;;;5.80;5.03;;;;;;;3.30;64.26;98590.61;1705243;82;21185;-63
2021/03/22 07:42:26;;;;;;;10.83;7.17;;;;;;;3.33;64.35;98586.94;1686087;82;21326;-63
2021/03/22 07:45:20;;;;;;;12.23;6.30;;;;;;;3.29;64.70;98595.98;1726768;81;21228;-61
2021/03/22 07:48:14;;;;;;;7.50;5.30;;;;;;;3.21;65.10;98598.05;1702847;82;21238;-64
2021/03/22 07:51:00;;;;;;;7.10;6.20;;;;;;;3.22;65.42;98594.02;1734642;81;21268;-61
2021/03/22 07:54:03;;;;;;;9.45;6.35;;;;;;;3.22;65.89;98602.45;1702591;82;21234;-61
2021/03/22 07:56:57;;;;;;;11.90;6.70;;;;;;;3.14;66.45;98601.87;1732113;81;22182;-61
2021/03/22 08:00:11;;;;;;;9.40;6.53;;;;;;;3.05;66.95;98601.74;1703377;82;21213;-60
2021/03/22 08:02:51;;;;;;;9.05;6.12;;;;;;;3.01;67.40;98606.29;1692804;83;24747;-61
2021/03/22 08:05:37;;;;;;;8.00;5.83;;;;;;;3.03;68.06;98606.23;1731573;82;21045;-61
2021/03/22 08:08:42;;;;;;;9.48;5.92;;;;;;;3.09;68.55;98607.34;1729163;81;21123;-62
2021/03/22 08:11:42;;;;;;;7.20;5.60;;;;;;;3.11;68.69;98605.50;1734578;81;21382;-61
2021/03/22 08:14:30;;;;;;;8.93;5.63;;;;;;;3.07;68.96;98606.98;1733980;81;21117;-63
2021/03/22 08:17:17;;;;;;;9.87;7.13;;;;;;;3.09;69.46;98604.68;1734576;82;21162;-62
2021/03/22 08:20:22;;;;;;;7.63;5.77;;;;;;;3.18;69.99;98600.81;1742122;81;21109;-61
2021/03/22 08:23:04;;;;;;;7.87;5.20;;;;;;;3.30;70.05;98605.70;1781392;78;21522;-62
2021/03/22 08:25:50;;;;;;;12.00;6.80;;;;;;;3.38;69.94;98605.81;1775866;80;21389;-60
2021/03/22 08:28:41;;;;;;;8.40;6.37;;;;;;;3.45;69.64;98609.11;1772467;80;21716;-63
2021/03/22 08:31:22;;;;;;;5.83;4.97;;;;;;;3.48;69.43;98609.46;1763384;80;21182;-61
2021/03/22 08:33:54;;;;;;;6.90;4.40;;;;;;;3.45;68.72;98602.45;1777387;79;21230;-62
2021/03/22 08:37:03;;;;;;;5.60;5.07;;;;;;;3.34;68.38;98610.83;1777605;80;21790;-59
2021/03/22 08:39:44;;;;;;;8.10;6.00;;;;;;;3.24;68.65;98608.56;1778941;80;21393;-61
2021/03/22 08:42:22;;;;;;;8.37;6.00;;;;;;;3.17;68.81;98611.04;1773927;78;21394;-60
2021/03/22 08:45:20;;;;;;;10.23;6.50;;;;;;;3.16;68.79;98615.95;1779722;78;21186;-60
2021/03/22 08:48:47;;;;;;;9.17;6.80;;;;;;;3.07;69.17;98611.84;1869202;74;26524;-61
2021/03/22 08:51:31;;;;;;;9.20;6.77;;;;;;;2.95;69.28;98608.31;1835702;75;21498;-62
2021/03/22 08:53:59;;;;;;;9.53;6.63;;;;;;;2.93;69.45;98611.02;1830497;75;21287;-61
2021/03/22 08:56:37;;;;;;;10.53;7.37;;;;;;;2.98;69.96;98609.50;1836720;75;21055;-64
2021/03/22 08:59:10;;;;;;;10.87;7.17;;;;;;;3.01;69.89;98608.95;1829121;75;21178;-65
2021/03/22 09:01:39;;;;;;;10.97;6.50;;;;;;;3.01;69.65;98612.94;1836283;75;21157;-64
2021/03/22 09:04:30;;;;;;;8.80;6.37;;;;;;;3.04;69.49;98615.50;1837186;75;21165;-62
2021/03/22 09:07:15;;;;;;;8.07;6.57;;;;;;;3.07;69.32;98614.49;1833127;75;21466;-64
2021/03/22 09:09:45;;;;;;;7.83;7.00;;;;;;;3.10;69.19;98613.52;1833513;75;21880;-61
2021/03/22 09:12:41;;;;;;;11.50;7.77;;;;;;;3.10;69.26;98614.39;1833116;75;22251;-62
2021/03/22 09:15:31;;;;;;;11.03;7.70;;;;;;;3.08;69.00;98619.35;1832051;75;21207;-62
2021/03/22 09:18:11;;;;;;;11.03;8.17;;;;;;;3.06;69.16;98616.77;1765893;78;21180;-64
2021/03/22 09:20:55;;;;;;;11.97;9.53;;;;;;;3.09;69.19;98619.30;1762152;78;21734;-63
2021/03/22 09:23:39;;;;;;;11.17;8.43;;;;;;;3.15;69.10;98615.08;1793513;78;21629;-63
2021/03/22 09:26:08;;;;;;;10.90;8.85;;;;;;;3.18;68.65;98612.78;1801718;77;21696;-62
2021/03/22 09:28:43;;;;;;;10.37;8.47;;;;;;;3.16;68.63;98610.17;1783004;78;21641;-63
2021/03/22 09:31:17;;;;;;;;;;;;;;;3.17;68.62;98617.69;1801415;78;21202;-64
2021/03/22 09:34:01;;;;;;;10.00;7.63;;;;;;;3.16;68.09;98617.28;1796317;78;21271;-60
2021/03/22 09:36:38;;;;;;;11.33;8.63;;;;;;;3.10;68.09;98617.05;1795929;77;21605;-62
2021/03/22 09:39:23;;;;;;;10.60;8.27;;;;;;;3.10;67.99;98621.04;1804892;77;21325;-61
2021/03/22 09:42:11;;;;;;;12.78;9.05;;;;;;;3.08;67.82;98617.56;1788183;77;21209;-64
2021/03/22 09:44:59;;;;;;;11.63;7.93;;;;;;;3.11;68.27;98618.80;1778235;78;21159;-61
2021/03/22 09:47:34;;;;;;;10.47;7.97;;;;;;;3.18;68.47;98611.45;1769651;78;22104;-62
2021/03/22 09:50:25;;;;;;;10.23;6.97;;;;;;;3.29;68.30;98623.91;1778924;78;21209;-64
2021/03/22 09:52:58;;;;;;;10.17;7.07;;;;;;;3.36;68.15;98622.75;1777638;78;21221;-62
2021/03/22 09:55:31;;;;;;;11.00;8.87;;;;;;;3.47;68.10;98623.69;1781723;78;21200;-61
2021/03/22 09:58:35;;;;;;;8.10;7.20;;;;;;;3.50;67.57;98621.76;1776836;79;21585;-62
2021/03/22 10:01:35;;;;;;;11.10;8.70;;;;;;;3.50;67.31;98619.09;1727017;80;21369;-61
2021/03/22 10:04:25;;;;;;;10.70;8.47;;;;;;;3.51;67.28;98616.84;1753892;80;21227;-59
2021/03/22 10:07:13;;;;;;;9.43;8.20;;;;;;;3.59;67.22;98625.86;1781789;78;21244;-65
2021/03/22 10:09:56;;;;;;;9.47;6.83;;;;;;;3.65;67.20;98621.66;1774972;80;21839;-62
2021/03/22 10:12:37;;;;;;;10.07;8.43;;;;;;;3.68;66.73;98627.72;1760369;80;21204;-63
2021/03/22 10:15:14;;;;;;;13.27;8.60;;;;;;;3.61;66.37;98632.00;1749588;80;21722;-61
2021/03/22 10:18:05;;;;;;;10.20;8.27;;;;;;;3.56;66.23;98633.52;1773620;79;21166;-64
2021/03/22 10:20:46;;;;;;;12.43;7.60;;;;;;;3.50;66.12;98634.19;1740922;80;21204;-61
2021/03/22 10:23:34;;;;;;;9.80;7.87;;;;;;;3.41;66.15;98633.61;1771135;80;21238;-65
2021/03/22 10:26:09;;;;;;;10.50;8.60;;;;;;;3.39;66.36;98635.95;1777504;78;21216;-61
2021/03/22 10:28:41;;;;;;;10.33;8.70;;;;;;;3.36;66.64;98633.39;1778766;78;21281;-61
2021/03/22 10:31:14;;;;;;;10.63;8.40;;;;;;;3.34;66.82;98640.55;1775453;80;21172;-61
2021/03/22 10:33:47;;;;;;;11.93;9.80;;;;;;;3.33;66.74;98640.14;1760147;80;21230;-61
2021/03/22 10:36:25;;;;;;;11.57;9.55;;;;;;;3.29;67.01;98640.73;1777178;79;21166;-60
2021/03/22 10:38:53;;;;;;;11.37;9.13;;;;;;;3.22;66.98;98633.91;1778884;78;21497;-64
2021/03/22 10:41:28;;;;;;;11.90;8.93;;;;;;;3.13;67.27;98637.36;1779794;78;23316;-63
2021/03/22 10:44:17;;;;;;;10.13;7.33;;;;;;;3.08;67.64;98637.96;1777908;79;22213;-61
2021/03/22 10:46:44;;;;;;;9.73;8.40;;;;;;;3.04;67.86;98630.11;1743868;80;21196;-61
2021/03/22 10:49:16;;;;;;;9.70;7.53;;;;;;;3.00;68.12;98628.94;1732783;78;22639;-60
2021/03/22 10:51:56;;;;;;;9.33;8.27;;;;;;;3.01;68.26;98634.66;1732431;80;21192;-64
2021/03/22 10:54:27;;;;;;;8.07;6.63;;;;;;;3.03;68.27;98629.70;1731846;80;21644;-60
2021/03/22 10:56:57;;;;;;;9.77;8.20;;;;;;;3.06;68.04;98630.06;1726774;80;21231;-60
2021/03/22 10:59:31;;;;;;;10.30;7.97;;;;;;;3.04;68.04;98627.45;1729738;80;21207;-61
2021/03/22 11:02:01;;;;;;;11.83;7.70;;;;;;;3.02;68.19;98630.63;1731901;80;21233;-62
2021/03/22 11:04:33;;;;;;;9.63;8.30;;;;;;;2.99;67.96;98625.86;1734203;80;21206;-62
2021/03/22 11:07:15;;;;;;;10.10;8.63;;;;;;;2.91;68.16;98628.80;1732117;80;22801;-60
2021/03/22 11:10:14;;;;;;;10.77;7.73;;;;;;;2.84;68.43;98626.41;1729682;80;21242;-60
2021/03/22 11:12:42;;;;;;;10.60;7.70;;;;;;;2.81;68.58;98620.73;1728860;80;21679;-63
2021/03/22 11:15:21;;;;;;;10.70;8.43;;;;;;;2.78;68.82;98626.17;1732862;80;21245;-62
2021/03/22 11:17:48;;;;;;;10.43;8.40;;;;;;;2.75;68.84;98626.73;1732793;80;21263;-60
2021/03/22 11:20:18;;;;;;;10.03;7.80;;;;;;;2.74;68.65;98628.98;1735250;80;22801;-63
2021/03/22 11:22:47;;;;;;;12.50;9.47;;;;;;;2.72;68.74;98624.20;1735316;80;21214;-59
2021/03/22 11:25:34;;;;;;;12.40;8.70;;;;;;;2.73;68.84;98632.55;1731299;80;21186;-63
2021/03/22 11:28:17;;;;;;;12.10;8.20;;;;;;;2.74;69.00;98626.31;1732612;80;21683;-64
2021/03/22 11:30:58;;;;;;;12.77;9.73;;;;;;;2.76;69.01;98628.47;1731874;80;22767;-61
2021/03/22 11:33:29;;;;;;;10.50;8.23;;;;;;;2.74;69.01;98627.19;1733025;80;21229;-61
2021/03/22 11:36:18;;;;;;;8.27;7.03;;;;;;;2.77;68.83;98638.18;1732245;80;21641;-61
2021/03/22 11:39:19;;;;;;;10.10;7.53;;;;;;;2.77;68.76;98629.75;1729632;80;21737;-64
2021/03/22 11:41:58;;;;;;;10.77;7.97;;;;;;;2.79;68.76;98634.56;1730214;80;21250;-62
2021/03/22 11:44:36;;;;;;;11.13;8.27;;;;;;;2.79;68.53;98641.20;1730300;80;21188;-60
2021/03/22 11:47:45;;;;;;;12.67;9.30;;;;;;;2.78;68.19;98639.92;1721814;81;21215;-64
2021/03/22 11:50:40;;;;;;;9.77;8.30;;;;;;;2.72;68.32;98637.03;1782108;79;21219;-63
2021/03/22 11:53:21;;;;;;;10.17;7.67;;;;;;;2.77;68.27;98635.06;1818384;76;26967;-62
2021/03/22 11:56:17;;;;;;;11.93;9.27;;;;;;;2.69;68.27;98642.44;1793837;79;21178;-63
2021/03/22 11:58:46;;;;;;;10.13;8.10;;;;;;;2.65;68.21;98637.67;1785821;79;22263;-59
2021/03/22 12:01:18;;;;;;;9.73;8.63;;;;;;;2.61;68.08;98643.16;1788538;79;21199;-59
2021/03/22 12:03:50;;;;;;;12.10;9.25;;;;;;;2.57;68.11;98644.16;1788171;79;21446;-61
2021/03/22 12:06:23;;;;;;;10.37;8.80;;;;;;;2.53;68.23;98647.41;1793094;78;21064;-63
2021/03/22 12:08:52;;;;;;;11.07;8.77;;;;;;;2.53;68.27;98646.53;1765389;79;21056;-60
2021/03/22 12:11:25;;;;;;;11.00;9.37;;;;;;;2.51;68.29;98639.07;1769613;79;22759;-62
2021/03/22 12:14:00;;;;;;;10.10;9.03;;;;;;;2.56;68.13;98638.44;1869646;75;26991;-61
2021/03/22 12:16:33;;;;;;;12.30;9.27;;;;;;;2.52;68.08;98639.02;1780033;78;21194;-61
2021/03/22 12:19:08;;;;;;;11.93;8.70;;;;;;;2.55;67.95;98642.88;1804050;78;21357;-60
2021/03/22 12:21:36;;;;;;;13.53;8.80;;;;;;;2.58;67.81;98645.91;1800654;78;21068;-62
2021/03/22 12:24:05;;;;;;;13.60;9.23;;;;;;;2.61;67.78;98643.16;1800818;78;21154;-59
2021/03/22 12:26:33;;;;;;;11.40;8.63;;;;;;;2.63;67.32;98642.66;1785478;79;21422;-61